sensor_id;sensor_type;location;lat;lon;timestamp;temperature;humidity
17994;DHT22;9122;48.406;9.984;2023-04-24T00:02:44;13.80;94.90
17994;DHT22;9122;48.406;9.984;2023-04-24T00:05:30;13.70;95.10
17994;DHT22;9122;48.406;9.984;2023-04-24T00:08:15;13.70;95.10
17994;DHT22;9122;48.406;9.984;2023-04-24T00:10:59;13.70;95.10
17994;DHT22;9122;48.406;9.984;2023-04-24T00:13:44;13.70;95.20
17994;DHT22;9122;48.406;9.984;2023-04-24T00:16:28;13.60;95.20
17994;DHT22;9122;48.406;9.984;2023-04-24T00:19:13;13.60;95.30
17994;DHT22;9122;48.406;9.984;2023-04-24T00:21:58;13.60;95.40
17994;DHT22;9122;48.406;9.984;2023-04-24T00:24:43;13.60;95.40
17994;DHT22;9122;48.406;9.984;2023-04-24T00:27:27;13.50;95.50
17994;DHT22;9122;48.406;9.984;2023-04-24T00:30:11;13.50;95.50
17994;DHT22;9122;48.406;9.984;2023-04-24T00:32:56;13.50;95.60
17994;DHT22;9122;48.406;9.984;2023-04-24T00:35:40;13.50;95.60
17994;DHT22;9122;48.406;9.984;2023-04-24T00:38:25;13.40;95.60
17994;DHT22;9122;48.406;9.984;2023-04-24T00:41:10;13.40;95.70
17994;DHT22;9122;48.406;9.984;2023-04-24T00:43:54;13.40;95.80
17994;DHT22;9122;48.406;9.984;2023-04-24T00:46:39;13.40;95.80
17994;DHT22;9122;48.406;9.984;2023-04-24T00:49:23;13.40;95.70
17994;DHT22;9122;48.406;9.984;2023-04-24T00:52:08;13.30;95.70
17994;DHT22;9122;48.406;9.984;2023-04-24T00:54:53;13.30;95.70
17994;DHT22;9122;48.406;9.984;2023-04-24T00:57:38;13.30;95.70
17994;DHT22;9122;48.406;9.984;2023-04-24T01:00:22;13.30;95.80
17994;DHT22;9122;48.406;9.984;2023-04-24T01:03:08;13.30;95.80
17994;DHT22;9122;48.406;9.984;2023-04-24T01:05:54;13.30;95.80
17994;DHT22;9122;48.406;9.984;2023-04-24T01:08:39;13.20;95.80
17994;DHT22;9122;48.406;9.984;2023-04-24T01:11:25;13.20;95.80
17994;DHT22;9122;48.406;9.984;2023-04-24T01:14:10;13.20;95.90
17994;DHT22;9122;48.406;9.984;2023-04-24T01:16:55;13.20;95.90
17994;DHT22;9122;48.406;9.984;2023-04-24T01:19:39;13.20;95.90
17994;DHT22;9122;48.406;9.984;2023-04-24T01:22:24;13.20;96.00
17994;DHT22;9122;48.406;9.984;2023-04-24T01:25:09;13.10;96.00
17994;DHT22;9122;48.406;9.984;2023-04-24T01:27:53;13.10;96.10
17994;DHT22;9122;48.406;9.984;2023-04-24T01:30:38;13.10;96.00
17994;DHT22;9122;48.406;9.984;2023-04-24T01:33:22;13.10;96.00
17994;DHT22;9122;48.406;9.984;2023-04-24T01:36:07;13.10;96.00
17994;DHT22;9122;48.406;9.984;2023-04-24T01:38:52;13.10;96.10
17994;DHT22;9122;48.406;9.984;2023-04-24T01:41:37;13.00;96.00
17994;DHT22;9122;48.406;9.984;2023-04-24T01:44:22;13.00;96.10
17994;DHT22;9122;48.406;9.984;2023-04-24T01:47:07;13.00;96.00
17994;DHT22;9122;48.406;9.984;2023-04-24T01:49:51;13.00;96.10
17994;DHT22;9122;48.406;9.984;2023-04-24T01:52:36;13.00;96.20
17994;DHT22;9122;48.406;9.984;2023-04-24T01:55:21;13.00;96.20
17994;DHT22;9122;48.406;9.984;2023-04-24T01:58:06;13.00;96.20
17994;DHT22;9122;48.406;9.984;2023-04-24T02:00:50;12.90;96.20
17994;DHT22;9122;48.406;9.984;2023-04-24T02:03:34;13.00;96.30
17994;DHT22;9122;48.406;9.984;2023-04-24T02:06:19;12.90;96.30
17994;DHT22;9122;48.406;9.984;2023-04-24T02:09:04;12.90;96.30
17994;DHT22;9122;48.406;9.984;2023-04-24T02:11:48;12.90;96.20
17994;DHT22;9122;48.406;9.984;2023-04-24T02:14:33;12.90;96.20
17994;DHT22;9122;48.406;9.984;2023-04-24T02:17:18;12.90;96.20
17994;DHT22;9122;48.406;9.984;2023-04-24T02:20:03;12.90;96.20
17994;DHT22;9122;48.406;9.984;2023-04-24T02:22:48;12.90;96.20
17994;DHT22;9122;48.406;9.984;2023-04-24T02:25:33;12.90;96.20
17994;DHT22;9122;48.406;9.984;2023-04-24T02:28:17;12.80;96.30
17994;DHT22;9122;48.406;9.984;2023-04-24T02:31:02;12.80;96.30
17994;DHT22;9122;48.406;9.984;2023-04-24T02:33:46;12.80;96.30
17994;DHT22;9122;48.406;9.984;2023-04-24T02:36:31;12.80;96.30
17994;DHT22;9122;48.406;9.984;2023-04-24T02:39:16;12.80;96.20
17994;DHT22;9122;48.406;9.984;2023-04-24T02:42:00;12.80;96.30
17994;DHT22;9122;48.406;9.984;2023-04-24T02:44:45;12.80;96.30
17994;DHT22;9122;48.406;9.984;2023-04-24T02:47:30;12.70;96.10
17994;DHT22;9122;48.406;9.984;2023-04-24T02:50:15;12.70;96.10
17994;DHT22;9122;48.406;9.984;2023-04-24T02:52:59;12.70;96.00
17994;DHT22;9122;48.406;9.984;2023-04-24T02:55:44;12.70;95.90
17994;DHT22;9122;48.406;9.984;2023-04-24T02:58:30;12.70;95.90
17994;DHT22;9122;48.406;9.984;2023-04-24T03:01:14;12.70;95.90
17994;DHT22;9122;48.406;9.984;2023-04-24T03:03:59;12.60;96.00
17994;DHT22;9122;48.406;9.984;2023-04-24T03:06:43;12.70;96.00
17994;DHT22;9122;48.406;9.984;2023-04-24T03:09:27;12.60;96.00
17994;DHT22;9122;48.406;9.984;2023-04-24T03:12:12;12.60;96.00
17994;DHT22;9122;48.406;9.984;2023-04-24T03:14:57;12.60;96.10
17994;DHT22;9122;48.406;9.984;2023-04-24T03:17:41;12.60;96.10
17994;DHT22;9122;48.406;9.984;2023-04-24T03:20:26;12.50;96.10
17994;DHT22;9122;48.406;9.984;2023-04-24T03:23:10;12.60;96.20
17994;DHT22;9122;48.406;9.984;2023-04-24T03:25:55;12.50;96.20
17994;DHT22;9122;48.406;9.984;2023-04-24T03:28:40;12.50;96.20
17994;DHT22;9122;48.406;9.984;2023-04-24T03:31:25;12.50;96.30
17994;DHT22;9122;48.406;9.984;2023-04-24T03:34:09;12.50;96.30
17994;DHT22;9122;48.406;9.984;2023-04-24T03:36:54;12.50;96.40
17994;DHT22;9122;48.406;9.984;2023-04-24T03:39:39;12.50;96.50
17994;DHT22;9122;48.406;9.984;2023-04-24T03:42:23;12.50;96.60
17994;DHT22;9122;48.406;9.984;2023-04-24T03:45:08;12.40;96.70
17994;DHT22;9122;48.406;9.984;2023-04-24T03:47:53;12.40;96.80
17994;DHT22;9122;48.406;9.984;2023-04-24T03:50:38;12.40;96.80
17994;DHT22;9122;48.406;9.984;2023-04-24T03:53:22;12.40;96.90
17994;DHT22;9122;48.406;9.984;2023-04-24T03:56:07;12.40;96.90
17994;DHT22;9122;48.406;9.984;2023-04-24T03:58:52;12.40;97.00
17994;DHT22;9122;48.406;9.984;2023-04-24T04:01:37;12.40;97.00
17994;DHT22;9122;48.406;9.984;2023-04-24T04:04:21;12.40;97.00
17994;DHT22;9122;48.406;9.984;2023-04-24T04:07:06;12.40;97.00
17994;DHT22;9122;48.406;9.984;2023-04-24T04:09:50;12.40;97.10
17994;DHT22;9122;48.406;9.984;2023-04-24T04:12:35;12.40;97.10
17994;DHT22;9122;48.406;9.984;2023-04-24T04:15:19;12.30;97.10
17994;DHT22;9122;48.406;9.984;2023-04-24T04:18:05;12.30;97.20
17994;DHT22;9122;48.406;9.984;2023-04-24T04:20:49;12.30;97.20
17994;DHT22;9122;48.406;9.984;2023-04-24T04:23:34;12.30;97.20
17994;DHT22;9122;48.406;9.984;2023-04-24T04:26:19;12.30;97.20
17994;DHT22;9122;48.406;9.984;2023-04-24T04:29:04;12.30;97.30
17994;DHT22;9122;48.406;9.984;2023-04-24T04:31:50;12.30;97.30
17994;DHT22;9122;48.406;9.984;2023-04-24T04:34:36;12.30;97.40
17994;DHT22;9122;48.406;9.984;2023-04-24T04:37:22;12.30;97.40
17994;DHT22;9122;48.406;9.984;2023-04-24T04:40:07;12.30;97.50
17994;DHT22;9122;48.406;9.984;2023-04-24T04:42:58;12.30;97.40
17994;DHT22;9122;48.406;9.984;2023-04-24T04:45:44;12.30;97.50
17994;DHT22;9122;48.406;9.984;2023-04-24T04:48:29;12.30;97.50
17994;DHT22;9122;48.406;9.984;2023-04-24T04:51:15;12.30;97.60
17994;DHT22;9122;48.406;9.984;2023-04-24T04:54:00;12.30;97.50
17994;DHT22;9122;48.406;9.984;2023-04-24T04:56:44;12.30;97.50
17994;DHT22;9122;48.406;9.984;2023-04-24T04:59:29;12.30;97.50
17994;DHT22;9122;48.406;9.984;2023-04-24T05:02:14;12.30;97.40
17994;DHT22;9122;48.406;9.984;2023-04-24T05:04:58;12.20;97.40
17994;DHT22;9122;48.406;9.984;2023-04-24T05:07:43;12.30;97.40
17994;DHT22;9122;48.406;9.984;2023-04-24T05:10:28;12.30;97.40
17994;DHT22;9122;48.406;9.984;2023-04-24T05:13:13;12.30;97.30
17994;DHT22;9122;48.406;9.984;2023-04-24T05:15:58;12.30;97.10
17994;DHT22;9122;48.406;9.984;2023-04-24T05:18:43;12.20;96.90
17994;DHT22;9122;48.406;9.984;2023-04-24T05:21:27;12.20;97.00
17994;DHT22;9122;48.406;9.984;2023-04-24T05:24:12;12.20;96.90
17994;DHT22;9122;48.406;9.984;2023-04-24T05:26:56;12.20;96.90
17994;DHT22;9122;48.406;9.984;2023-04-24T05:29:42;12.20;96.80
17994;DHT22;9122;48.406;9.984;2023-04-24T05:32:27;12.20;96.60
17994;DHT22;9122;48.406;9.984;2023-04-24T05:35:12;12.20;96.50
17994;DHT22;9122;48.406;9.984;2023-04-24T05:37:56;12.20;96.40
17994;DHT22;9122;48.406;9.984;2023-04-24T05:40:41;12.20;96.40
17994;DHT22;9122;48.406;9.984;2023-04-24T05:43:27;12.20;96.50
17994;DHT22;9122;48.406;9.984;2023-04-24T05:46:12;12.20;96.50
17994;DHT22;9122;48.406;9.984;2023-04-24T05:48:56;12.20;96.40
17994;DHT22;9122;48.406;9.984;2023-04-24T05:51:41;12.20;96.20
17994;DHT22;9122;48.406;9.984;2023-04-24T05:54:26;12.20;96.20
17994;DHT22;9122;48.406;9.984;2023-04-24T05:57:10;12.20;96.20
17994;DHT22;9122;48.406;9.984;2023-04-24T05:59:54;12.30;96.10
17994;DHT22;9122;48.406;9.984;2023-04-24T06:02:39;12.20;96.20
17994;DHT22;9122;48.406;9.984;2023-04-24T06:05:24;12.20;96.00
17994;DHT22;9122;48.406;9.984;2023-04-24T06:08:09;12.20;96.00
17994;DHT22;9122;48.406;9.984;2023-04-24T06:10:54;12.20;96.00
17994;DHT22;9122;48.406;9.984;2023-04-24T06:13:38;12.20;96.20
17994;DHT22;9122;48.406;9.984;2023-04-24T06:16:23;12.20;96.40
17994;DHT22;9122;48.406;9.984;2023-04-24T06:19:08;12.20;96.60
17994;DHT22;9122;48.406;9.984;2023-04-24T06:21:52;12.20;96.80
17994;DHT22;9122;48.406;9.984;2023-04-24T06:24:37;12.10;96.30
17994;DHT22;9122;48.406;9.984;2023-04-24T06:27:21;12.10;96.10
17994;DHT22;9122;48.406;9.984;2023-04-24T06:30:06;12.10;96.10
17994;DHT22;9122;48.406;9.984;2023-04-24T06:32:51;12.00;96.00
17994;DHT22;9122;48.406;9.984;2023-04-24T06:35:39;12.00;95.60
17994;DHT22;9122;48.406;9.984;2023-04-24T06:38:24;12.00;95.10
17994;DHT22;9122;48.406;9.984;2023-04-24T06:41:09;12.00;94.90
17994;DHT22;9122;48.406;9.984;2023-04-24T06:43:54;11.90;94.80
17994;DHT22;9122;48.406;9.984;2023-04-24T06:46:38;11.90;94.80
17994;DHT22;9122;48.406;9.984;2023-04-24T06:49:23;11.90;94.80
17994;DHT22;9122;48.406;9.984;2023-04-24T06:52:08;11.90;94.90
17994;DHT22;9122;48.406;9.984;2023-04-24T06:54:52;11.90;95.00
17994;DHT22;9122;48.406;9.984;2023-04-24T06:57:43;11.90;95.10
17994;DHT22;9122;48.406;9.984;2023-04-24T07:00:28;11.90;95.10
17994;DHT22;9122;48.406;9.984;2023-04-24T07:03:14;11.90;95.10
17994;DHT22;9122;48.406;9.984;2023-04-24T07:05:58;11.90;95.20
17994;DHT22;9122;48.406;9.984;2023-04-24T07:08:43;11.90;95.10
17994;DHT22;9122;48.406;9.984;2023-04-24T07:14:13;11.90;94.90
17994;DHT22;9122;48.406;9.984;2023-04-24T07:16:57;11.90;95.10
17994;DHT22;9122;48.406;9.984;2023-04-24T07:19:42;11.90;94.70
17994;DHT22;9122;48.406;9.984;2023-04-24T07:22:26;11.90;94.70
17994;DHT22;9122;48.406;9.984;2023-04-24T07:25:11;11.90;94.70
17994;DHT22;9122;48.406;9.984;2023-04-24T07:27:55;11.90;94.70
17994;DHT22;9122;48.406;9.984;2023-04-24T07:30:40;12.00;94.80
17994;DHT22;9122;48.406;9.984;2023-04-24T07:33:25;12.10;94.60
17994;DHT22;9122;48.406;9.984;2023-04-24T07:36:09;12.20;94.70
17994;DHT22;9122;48.406;9.984;2023-04-24T07:38:59;12.30;94.60
17994;DHT22;9122;48.406;9.984;2023-04-24T07:41:44;12.40;94.70
17994;DHT22;9122;48.406;9.984;2023-04-24T07:44:28;12.50;94.40
17994;DHT22;9122;48.406;9.984;2023-04-24T07:47:13;12.60;94.00
17994;DHT22;9122;48.406;9.984;2023-04-24T07:49:59;12.80;93.70
17994;DHT22;9122;48.406;9.984;2023-04-24T07:52:44;13.00;93.50
17994;DHT22;9122;48.406;9.984;2023-04-24T07:55:28;13.10;93.20
17994;DHT22;9122;48.406;9.984;2023-04-24T07:58:13;13.30;93.20
17994;DHT22;9122;48.406;9.984;2023-04-24T08:00:57;13.50;92.80
17994;DHT22;9122;48.406;9.984;2023-04-24T08:03:41;13.60;92.30
17994;DHT22;9122;48.406;9.984;2023-04-24T08:06:26;13.60;92.10
17994;DHT22;9122;48.406;9.984;2023-04-24T08:09:14;13.70;91.60
17994;DHT22;9122;48.406;9.984;2023-04-24T08:11:59;13.70;91.00
17994;DHT22;9122;48.406;9.984;2023-04-24T08:14:44;13.70;90.70
17994;DHT22;9122;48.406;9.984;2023-04-24T08:17:28;13.80;90.40
17994;DHT22;9122;48.406;9.984;2023-04-24T08:20:13;13.80;89.60
17994;DHT22;9122;48.406;9.984;2023-04-24T08:22:57;13.80;87.50
17994;DHT22;9122;48.406;9.984;2023-04-24T08:25:42;13.80;87.10
17994;DHT22;9122;48.406;9.984;2023-04-24T08:28:26;13.70;87.00
17994;DHT22;9122;48.406;9.984;2023-04-24T08:31:11;13.70;87.00
17994;DHT22;9122;48.406;9.984;2023-04-24T08:33:55;13.70;87.00
17994;DHT22;9122;48.406;9.984;2023-04-24T08:36:40;13.80;87.40
17994;DHT22;9122;48.406;9.984;2023-04-24T08:39:25;14.00;87.20
17994;DHT22;9122;48.406;9.984;2023-04-24T08:42:11;14.10;86.30
17994;DHT22;9122;48.406;9.984;2023-04-24T08:44:57;14.30;85.50
17994;DHT22;9122;48.406;9.984;2023-04-24T08:47:42;14.40;84.40
17994;DHT22;9122;48.406;9.984;2023-04-24T08:50:27;14.50;83.60
17994;DHT22;9122;48.406;9.984;2023-04-24T08:53:12;14.50;85.50
17994;DHT22;9122;48.406;9.984;2023-04-24T08:55:57;14.40;87.50
17994;DHT22;9122;48.406;9.984;2023-04-24T08:58:42;14.20;89.30
17994;DHT22;9122;48.406;9.984;2023-04-24T09:01:27;14.10;89.10
17994;DHT22;9122;48.406;9.984;2023-04-24T09:04:14;13.90;89.70
17994;DHT22;9122;48.406;9.984;2023-04-24T09:07:00;13.90;88.80
17994;DHT22;9122;48.406;9.984;2023-04-24T09:09:45;13.80;87.90
17994;DHT22;9122;48.406;9.984;2023-04-24T09:12:29;13.90;87.20
17994;DHT22;9122;48.406;9.984;2023-04-24T09:15:14;13.90;87.00
17994;DHT22;9122;48.406;9.984;2023-04-24T09:17:59;13.90;85.40
17994;DHT22;9122;48.406;9.984;2023-04-24T09:23:44;13.90;86.00
17994;DHT22;9122;48.406;9.984;2023-04-24T09:26:34;13.80;85.20
17994;DHT22;9122;48.406;9.984;2023-04-24T09:29:19;13.80;84.80
17994;DHT22;9122;48.406;9.984;2023-04-24T09:32:20;13.80;84.50
17994;DHT22;9122;48.406;9.984;2023-04-24T09:35:14;13.80;84.10
17994;DHT22;9122;48.406;9.984;2023-04-24T09:37:59;13.90;84.80
17994;DHT22;9122;48.406;9.984;2023-04-24T09:40:44;13.90;83.90
17994;DHT22;9122;48.406;9.984;2023-04-24T09:43:28;14.10;82.30
17994;DHT22;9122;48.406;9.984;2023-04-24T09:46:13;14.20;81.80
17994;DHT22;9122;48.406;9.984;2023-04-24T09:49:12;14.30;81.00
17994;DHT22;9122;48.406;9.984;2023-04-24T09:52:08;14.50;80.60
17994;DHT22;9122;48.406;9.984;2023-04-24T09:54:56;14.60;79.90
17994;DHT22;9122;48.406;9.984;2023-04-24T09:58:00;14.80;79.40
17994;DHT22;9122;48.406;9.984;2023-04-24T10:00:45;15.00;77.70
17994;DHT22;9122;48.406;9.984;2023-04-24T10:03:30;15.10;76.60
17994;DHT22;9122;48.406;9.984;2023-04-24T10:06:15;15.20;75.50
17994;DHT22;9122;48.406;9.984;2023-04-24T10:09:00;15.30;75.50
17994;DHT22;9122;48.406;9.984;2023-04-24T10:11:46;15.40;74.80
17994;DHT22;9122;48.406;9.984;2023-04-24T10:14:31;15.60;75.10
17994;DHT22;9122;48.406;9.984;2023-04-24T10:17:16;15.70;74.60
17994;DHT22;9122;48.406;9.984;2023-04-24T10:20:01;15.80;73.80
17994;DHT22;9122;48.406;9.984;2023-04-24T10:22:52;15.90;73.60
17994;DHT22;9122;48.406;9.984;2023-04-24T10:25:40;16.10;73.10
17994;DHT22;9122;48.406;9.984;2023-04-24T10:28:26;16.20;71.20
17994;DHT22;9122;48.406;9.984;2023-04-24T10:31:16;16.30;70.80
17994;DHT22;9122;48.406;9.984;2023-04-24T10:34:01;16.30;70.30
17994;DHT22;9122;48.406;9.984;2023-04-24T10:36:51;16.40;69.70
17994;DHT22;9122;48.406;9.984;2023-04-24T10:39:36;16.40;68.40
17994;DHT22;9122;48.406;9.984;2023-04-24T10:42:21;16.40;67.20
17994;DHT22;9122;48.406;9.984;2023-04-24T10:45:06;16.50;65.30
17994;DHT22;9122;48.406;9.984;2023-04-24T10:47:58;16.50;65.50
17994;DHT22;9122;48.406;9.984;2023-04-24T10:51:01;14.70;65.60
17994;DHT22;9122;48.406;9.984;2023-04-24T10:53:46;16.50;67.80
17994;DHT22;9122;48.406;9.984;2023-04-24T10:56:33;16.40;66.80
17994;DHT22;9122;48.406;9.984;2023-04-24T10:59:25;16.30;66.00
17994;DHT22;9122;48.406;9.984;2023-04-24T11:02:10;16.20;66.60
17994;DHT22;9122;48.406;9.984;2023-04-24T11:04:54;16.00;67.70
17994;DHT22;9122;48.406;9.984;2023-04-24T11:11:13;15.80;69.00
17994;DHT22;9122;48.406;9.984;2023-04-24T11:14:01;15.80;69.80
17994;DHT22;9122;48.406;9.984;2023-04-24T11:16:53;15.80;70.40
17994;DHT22;9122;48.406;9.984;2023-04-24T11:19:41;15.90;70.50
17994;DHT22;9122;48.406;9.984;2023-04-24T11:22:27;16.00;70.90
17994;DHT22;9122;48.406;9.984;2023-04-24T11:25:13;16.00;68.80
17994;DHT22;9122;48.406;9.984;2023-04-24T11:28:04;16.00;67.50
17994;DHT22;9122;48.406;9.984;2023-04-24T11:30:49;16.00;64.70
17994;DHT22;9122;48.406;9.984;2023-04-24T11:33:35;16.00;65.10
17994;DHT22;9122;48.406;9.984;2023-04-24T11:36:19;15.90;65.10
17994;DHT22;9122;48.406;9.984;2023-04-24T11:39:06;15.90;63.40
17994;DHT22;9122;48.406;9.984;2023-04-24T11:41:51;15.80;63.70
17994;DHT22;9122;48.406;9.984;2023-04-24T11:44:36;15.80;64.50
17994;DHT22;9122;48.406;9.984;2023-04-24T11:47:31;15.70;65.40
17994;DHT22;9122;48.406;9.984;2023-04-24T11:50:20;15.70;66.10
17994;DHT22;9122;48.406;9.984;2023-04-24T11:53:05;15.60;66.50
17994;DHT22;9122;48.406;9.984;2023-04-24T11:55:50;15.50;67.50
17994;DHT22;9122;48.406;9.984;2023-04-24T11:58:35;15.50;68.60
17994;DHT22;9122;48.406;9.984;2023-04-24T12:01:20;15.60;68.20
17994;DHT22;9122;48.406;9.984;2023-04-24T12:04:05;15.60;65.60
17994;DHT22;9122;48.406;9.984;2023-04-24T12:06:59;15.60;64.70
17994;DHT22;9122;48.406;9.984;2023-04-24T12:09:46;15.60;63.80
17994;DHT22;9122;48.406;9.984;2023-04-24T12:12:31;15.60;63.80
17994;DHT22;9122;48.406;9.984;2023-04-24T12:15:16;15.60;64.10
17994;DHT22;9122;48.406;9.984;2023-04-24T12:18:01;15.70;64.20
17994;DHT22;9122;48.406;9.984;2023-04-24T12:20:46;15.70;64.60
17994;DHT22;9122;48.406;9.984;2023-04-24T12:23:34;15.80;63.50
17994;DHT22;9122;48.406;9.984;2023-04-24T12:26:22;15.80;61.90
17994;DHT22;9122;48.406;9.984;2023-04-24T12:29:07;15.70;61.90
17994;DHT22;9122;48.406;9.984;2023-04-24T12:31:52;15.60;62.60
17994;DHT22;9122;48.406;9.984;2023-04-24T12:34:37;15.60;61.80
17994;DHT22;9122;48.406;9.984;2023-04-24T12:37:26;15.50;62.00
17994;DHT22;9122;48.406;9.984;2023-04-24T12:40:11;15.50;62.30
17994;DHT22;9122;48.406;9.984;2023-04-24T12:42:56;15.40;62.30
17994;DHT22;9122;48.406;9.984;2023-04-24T12:45:41;15.40;62.10
17994;DHT22;9122;48.406;9.984;2023-04-24T12:48:29;15.30;62.20
17994;DHT22;9122;48.406;9.984;2023-04-24T12:51:14;15.30;63.10
17994;DHT22;9122;48.406;9.984;2023-04-24T12:53:58;15.30;63.70
17994;DHT22;9122;48.406;9.984;2023-04-24T12:56:43;15.20;63.80
17994;DHT22;9122;48.406;9.984;2023-04-24T12:59:27;15.20;63.80
17994;DHT22;9122;48.406;9.984;2023-04-24T13:02:12;15.20;64.10
17994;DHT22;9122;48.406;9.984;2023-04-24T13:05:00;15.20;64.00
17994;DHT22;9122;48.406;9.984;2023-04-24T13:07:44;15.10;63.80
17994;DHT22;9122;48.406;9.984;2023-04-24T13:10:29;15.10;63.90
17994;DHT22;9122;48.406;9.984;2023-04-24T13:13:14;15.10;63.80
17994;DHT22;9122;48.406;9.984;2023-04-24T13:15:58;15.10;63.80
17994;DHT22;9122;48.406;9.984;2023-04-24T13:18:43;15.00;64.50
17994;DHT22;9122;48.406;9.984;2023-04-24T13:21:29;15.00;64.50
17994;DHT22;9122;48.406;9.984;2023-04-24T13:24:14;15.00;64.70
17994;DHT22;9122;48.406;9.984;2023-04-24T13:27:00;15.00;64.80
17994;DHT22;9122;48.406;9.984;2023-04-24T13:29:44;15.00;64.80
17994;DHT22;9122;48.406;9.984;2023-04-24T13:32:29;14.90;64.70
17994;DHT22;9122;48.406;9.984;2023-04-24T13:35:14;14.90;64.80
17994;DHT22;9122;48.406;9.984;2023-04-24T13:37:58;14.90;65.00
17994;DHT22;9122;48.406;9.984;2023-04-24T13:40:43;14.90;65.50
17994;DHT22;9122;48.406;9.984;2023-04-24T13:43:27;14.90;65.60
17994;DHT22;9122;48.406;9.984;2023-04-24T13:46:12;14.90;65.10
17994;DHT22;9122;48.406;9.984;2023-04-24T13:48:57;14.80;64.30
17994;DHT22;9122;48.406;9.984;2023-04-24T13:51:42;14.80;64.00
17994;DHT22;9122;48.406;9.984;2023-04-24T13:54:27;14.80;64.10
17994;DHT22;9122;48.406;9.984;2023-04-24T13:57:11;14.80;64.20
17994;DHT22;9122;48.406;9.984;2023-04-24T13:59:56;14.80;64.50
17994;DHT22;9122;48.406;9.984;2023-04-24T14:02:45;14.80;64.50
17994;DHT22;9122;48.406;9.984;2023-04-24T14:05:29;14.70;64.40
17994;DHT22;9122;48.406;9.984;2023-04-24T14:08:15;14.70;64.00
17994;DHT22;9122;48.406;9.984;2023-04-24T14:11:00;14.70;64.40
17994;DHT22;9122;48.406;9.984;2023-04-24T14:13:45;14.70;64.80
17994;DHT22;9122;48.406;9.984;2023-04-24T14:16:29;14.70;64.90
17994;DHT22;9122;48.406;9.984;2023-04-24T14:19:14;14.70;63.90
17994;DHT22;9122;48.406;9.984;2023-04-24T14:22:00;14.80;64.10
17994;DHT22;9122;48.406;9.984;2023-04-24T14:24:44;14.80;64.10
17994;DHT22;9122;48.406;9.984;2023-04-24T14:27:28;14.80;64.30
17994;DHT22;9122;48.406;9.984;2023-04-24T14:30:14;14.80;63.90
17994;DHT22;9122;48.406;9.984;2023-04-24T14:32:59;14.80;64.10
17994;DHT22;9122;48.406;9.984;2023-04-24T14:35:44;14.80;62.70
17994;DHT22;9122;48.406;9.984;2023-04-24T14:38:29;14.80;61.20
17994;DHT22;9122;48.406;9.984;2023-04-24T14:41:15;14.80;60.60
17994;DHT22;9122;48.406;9.984;2023-04-24T14:43:59;14.80;60.70
17994;DHT22;9122;48.406;9.984;2023-04-24T14:46:45;14.80;61.60
17994;DHT22;9122;48.406;9.984;2023-04-24T14:49:29;14.80;60.90
17994;DHT22;9122;48.406;9.984;2023-04-24T14:52:14;14.80;61.20
17994;DHT22;9122;48.406;9.984;2023-04-24T14:54:59;14.80;61.00
17994;DHT22;9122;48.406;9.984;2023-04-24T14:57:43;14.70;60.80
17994;DHT22;9122;48.406;9.984;2023-04-24T15:00:27;14.70;61.30
17994;DHT22;9122;48.406;9.984;2023-04-24T15:03:12;14.70;60.80
17994;DHT22;9122;48.406;9.984;2023-04-24T15:05:57;14.70;60.60
17994;DHT22;9122;48.406;9.984;2023-04-24T15:08:41;14.60;60.60
17994;DHT22;9122;48.406;9.984;2023-04-24T15:11:33;14.60;60.80
17994;DHT22;9122;48.406;9.984;2023-04-24T15:14:18;14.70;60.70
17994;DHT22;9122;48.406;9.984;2023-04-24T15:17:02;14.60;60.30
17994;DHT22;9122;48.406;9.984;2023-04-24T15:19:47;14.60;60.30
17994;DHT22;9122;48.406;9.984;2023-04-24T15:22:32;14.60;60.10
17994;DHT22;9122;48.406;9.984;2023-04-24T15:25:16;14.60;59.90
17994;DHT22;9122;48.406;9.984;2023-04-24T15:28:01;14.60;60.00
17994;DHT22;9122;48.406;9.984;2023-04-24T15:30:46;14.60;60.50
17994;DHT22;9122;48.406;9.984;2023-04-24T15:33:30;14.60;60.60
17994;DHT22;9122;48.406;9.984;2023-04-24T15:36:15;14.60;60.20
17994;DHT22;9122;48.406;9.984;2023-04-24T15:39:03;14.60;60.10
17994;DHT22;9122;48.406;9.984;2023-04-24T15:41:48;14.60;60.00
17994;DHT22;9122;48.406;9.984;2023-04-24T15:44:34;14.60;60.10
17994;DHT22;9122;48.406;9.984;2023-04-24T15:47:19;14.60;59.90
17994;DHT22;9122;48.406;9.984;2023-04-24T15:50:04;14.60;59.50
17994;DHT22;9122;48.406;9.984;2023-04-24T15:52:48;14.50;59.40
17994;DHT22;9122;48.406;9.984;2023-04-24T15:55:33;14.50;60.00
17994;DHT22;9122;48.406;9.984;2023-04-24T15:58:19;14.50;60.40
17994;DHT22;9122;48.406;9.984;2023-04-24T16:01:04;14.40;60.60
17994;DHT22;9122;48.406;9.984;2023-04-24T16:03:49;14.40;60.60
17994;DHT22;9122;48.406;9.984;2023-04-24T16:06:33;14.40;61.00
17994;DHT22;9122;48.406;9.984;2023-04-24T16:09:18;14.40;61.10
17994;DHT22;9122;48.406;9.984;2023-04-24T16:12:03;14.40;61.10
17994;DHT22;9122;48.406;9.984;2023-04-24T16:14:47;14.40;61.20
17994;DHT22;9122;48.406;9.984;2023-04-24T16:17:32;14.30;61.20
17994;DHT22;9122;48.406;9.984;2023-04-24T16:20:16;14.30;61.80
17994;DHT22;9122;48.406;9.984;2023-04-24T16:23:01;14.20;61.80
17994;DHT22;9122;48.406;9.984;2023-04-24T16:25:45;14.20;62.00
17994;DHT22;9122;48.406;9.984;2023-04-24T16:28:30;14.30;62.60
17994;DHT22;9122;48.406;9.984;2023-04-24T16:31:14;14.20;62.70
17994;DHT22;9122;48.406;9.984;2023-04-24T16:33:59;14.30;62.40
17994;DHT22;9122;48.406;9.984;2023-04-24T16:36:44;14.20;62.40
17994;DHT22;9122;48.406;9.984;2023-04-24T16:39:28;14.30;62.80
17994;DHT22;9122;48.406;9.984;2023-04-24T16:42:14;14.20;63.00
17994;DHT22;9122;48.406;9.984;2023-04-24T16:44:59;14.20;63.00
17994;DHT22;9122;48.406;9.984;2023-04-24T16:47:44;14.20;63.20
17994;DHT22;9122;48.406;9.984;2023-04-24T16:50:28;14.20;63.30
17994;DHT22;9122;48.406;9.984;2023-04-24T16:53:13;14.20;63.30
17994;DHT22;9122;48.406;9.984;2023-04-24T16:55:57;14.20;62.80
17994;DHT22;9122;48.406;9.984;2023-04-24T16:58:42;14.20;63.00
17994;DHT22;9122;48.406;9.984;2023-04-24T17:01:27;14.20;63.20
17994;DHT22;9122;48.406;9.984;2023-04-24T17:04:11;14.20;63.00
17994;DHT22;9122;48.406;9.984;2023-04-24T17:06:56;14.20;62.30
17994;DHT22;9122;48.406;9.984;2023-04-24T17:09:40;14.20;61.90
17994;DHT22;9122;48.406;9.984;2023-04-24T17:12:26;14.10;61.60
17994;DHT22;9122;48.406;9.984;2023-04-24T17:15:10;14.10;61.00
17994;DHT22;9122;48.406;9.984;2023-04-24T17:17:54;14.10;60.90
17994;DHT22;9122;48.406;9.984;2023-04-24T17:20:39;14.00;60.90
17994;DHT22;9122;48.406;9.984;2023-04-24T17:23:24;14.00;61.10
17994;DHT22;9122;48.406;9.984;2023-04-24T17:26:08;14.00;61.40
17994;DHT22;9122;48.406;9.984;2023-04-24T17:28:53;14.00;61.70
17994;DHT22;9122;48.406;9.984;2023-04-24T17:31:38;14.00;61.40
17994;DHT22;9122;48.406;9.984;2023-04-24T17:34:22;13.90;61.50
17994;DHT22;9122;48.406;9.984;2023-04-24T17:37:07;13.90;61.80
17994;DHT22;9122;48.406;9.984;2023-04-24T17:39:51;13.90;62.30
17994;DHT22;9122;48.406;9.984;2023-04-24T17:42:35;13.90;62.30
17994;DHT22;9122;48.406;9.984;2023-04-24T17:45:24;13.80;62.90
17994;DHT22;9122;48.406;9.984;2023-04-24T17:48:08;13.80;63.20
17994;DHT22;9122;48.406;9.984;2023-04-24T17:50:52;13.80;63.50